sensor_id;sensor_type;location;lat;lon;timestamp;P1;durP1;ratioP1;P2;durP2;ratioP2
75608;SDS011;64194;51.044;13.780;2022-12-07T00:02:55;13.70;;;6.10;;
75608;SDS011;64194;51.044;13.780;2022-12-07T00:06:57;14.15;;;6.57;;
75608;SDS011;64194;51.044;13.780;2022-12-07T00:11:03;13.98;;;6.57;;
75608;SDS011;64194;51.044;13.780;2022-12-07T00:15:43;11.50;;;5.82;;
75608;SDS011;64194;51.044;13.780;2022-12-07T00:20:01;13.70;;;5.75;;
75608;SDS011;64194;51.044;13.780;2022-12-07T00:24:22;13.85;;;5.90;;
75608;SDS011;64194;51.044;13.780;2022-12-07T00:33:08;14.65;;;6.65;;
75608;SDS011;64194;51.044;13.780;2022-12-07T00:37:12;15.35;;;6.72;;
75608;SDS011;64194;51.044;13.780;2022-12-07T00:41:23;12.88;;;6.32;;
75608;SDS011;64194;51.044;13.780;2022-12-07T00:45:26;12.00;;;6.20;;
75608;SDS011;64194;51.044;13.780;2022-12-07T00:49:31;13.10;;;5.75;;
75608;SDS011;64194;51.044;13.780;2022-12-07T00:53:36;12.65;;;5.93;;
75608;SDS011;64194;51.044;13.780;2022-12-07T01:02:12;12.63;;;5.85;;
75608;SDS011;64194;51.044;13.780;2022-12-07T01:06:16;12.00;;;5.63;;
75608;SDS011;64194;51.044;13.780;2022-12-07T01:14:54;15.13;;;6.93;;
75608;SDS011;64194;51.044;13.780;2022-12-07T01:18:56;13.73;;;6.47;;
75608;SDS011;64194;51.044;13.780;2022-12-07T01:22:58;16.33;;;7.28;;
75608;SDS011;64194;51.044;13.780;2022-12-07T01:27:00;16.00;;;7.50;;
75608;SDS011;64194;51.044;13.780;2022-12-07T01:31:03;17.52;;;7.30;;
75608;SDS011;64194;51.044;13.780;2022-12-07T01:35:06;15.82;;;7.45;;
75608;SDS011;64194;51.044;13.780;2022-12-07T01:39:08;16.52;;;7.10;;
75608;SDS011;64194;51.044;13.780;2022-12-07T01:43:16;15.90;;;7.03;;
75608;SDS011;64194;51.044;13.780;2022-12-07T01:47:19;15.93;;;7.13;;
75608;SDS011;64194;51.044;13.780;2022-12-07T01:51:21;13.20;;;6.20;;
75608;SDS011;64194;51.044;13.780;2022-12-07T01:55:22;16.88;;;8.15;;
75608;SDS011;64194;51.044;13.780;2022-12-07T01:59:25;16.80;;;7.32;;
75608;SDS011;64194;51.044;13.780;2022-12-07T02:03:29;16.05;;;6.60;;
75608;SDS011;64194;51.044;13.780;2022-12-07T02:07:36;12.77;;;6.57;;
75608;SDS011;64194;51.044;13.780;2022-12-07T02:11:39;12.85;;;5.63;;
75608;SDS011;64194;51.044;13.780;2022-12-07T02:29:07;11.40;;;5.38;;
75608;SDS011;64194;51.044;13.780;2022-12-07T02:33:16;12.40;;;5.97;;
75608;SDS011;64194;51.044;13.780;2022-12-07T02:37:47;12.02;;;5.63;;
75608;SDS011;64194;51.044;13.780;2022-12-07T02:41:56;10.55;;;4.65;;
75608;SDS011;64194;51.044;13.780;2022-12-07T02:46:10;12.60;;;5.90;;
75608;SDS011;64194;51.044;13.780;2022-12-07T02:50:16;12.68;;;5.47;;
75608;SDS011;64194;51.044;13.780;2022-12-07T02:54:21;11.82;;;6.05;;
75608;SDS011;64194;51.044;13.780;2022-12-07T02:58:30;12.63;;;5.72;;
75608;SDS011;64194;51.044;13.780;2022-12-07T03:02:49;10.52;;;4.78;;
75608;SDS011;64194;51.044;13.780;2022-12-07T03:07:48;11.13;;;5.07;;
75608;SDS011;64194;51.044;13.780;2022-12-07T03:11:34;11.50;;;5.30;;
75608;SDS011;64194;51.044;13.780;2022-12-07T03:15:48;11.75;;;5.50;;
75608;SDS011;64194;51.044;13.780;2022-12-07T03:19:58;12.77;;;6.00;;
75608;SDS011;64194;51.044;13.780;2022-12-07T03:24:05;12.73;;;6.35;;
75608;SDS011;64194;51.044;13.780;2022-12-07T03:28:11;14.48;;;6.50;;
75608;SDS011;64194;51.044;13.780;2022-12-07T03:40:50;14.68;;;6.45;;
75608;SDS011;64194;51.044;13.780;2022-12-07T03:45:00;13.05;;;6.30;;
75608;SDS011;64194;51.044;13.780;2022-12-07T03:49:23;14.98;;;7.07;;
75608;SDS011;64194;51.044;13.780;2022-12-07T03:53:32;15.80;;;6.60;;
75608;SDS011;64194;51.044;13.780;2022-12-07T03:57:38;14.13;;;7.25;;
75608;SDS011;64194;51.044;13.780;2022-12-07T04:01:43;15.80;;;7.43;;
75608;SDS011;64194;51.044;13.780;2022-12-07T04:05:45;13.63;;;6.88;;
75608;SDS011;64194;51.044;13.780;2022-12-07T04:09:47;16.77;;;7.05;;
75608;SDS011;64194;51.044;13.780;2022-12-07T04:13:48;13.73;;;6.65;;
75608;SDS011;64194;51.044;13.780;2022-12-07T04:18:08;17.23;;;8.00;;
75608;SDS011;64194;51.044;13.780;2022-12-07T04:22:10;14.98;;;6.90;;
75608;SDS011;64194;51.044;13.780;2022-12-07T04:26:12;15.70;;;7.10;;
75608;SDS011;64194;51.044;13.780;2022-12-07T04:30:13;13.55;;;6.40;;
75608;SDS011;64194;51.044;13.780;2022-12-07T04:34:15;13.55;;;6.78;;
75608;SDS011;64194;51.044;13.780;2022-12-07T04:38:17;14.90;;;6.88;;
75608;SDS011;64194;51.044;13.780;2022-12-07T04:42:19;13.43;;;6.45;;
75608;SDS011;64194;51.044;13.780;2022-12-07T04:46:22;13.68;;;6.68;;
75608;SDS011;64194;51.044;13.780;2022-12-07T04:50:25;12.95;;;5.90;;
75608;SDS011;64194;51.044;13.780;2022-12-07T04:54:26;15.88;;;6.53;;
75608;SDS011;64194;51.044;13.780;2022-12-07T04:58:29;11.68;;;6.28;;
75608;SDS011;64194;51.044;13.780;2022-12-07T05:02:39;13.02;;;6.45;;
75608;SDS011;64194;51.044;13.780;2022-12-07T05:06:41;16.02;;;7.20;;
75608;SDS011;64194;51.044;13.780;2022-12-07T05:10:44;15.63;;;7.07;;
75608;SDS011;64194;51.044;13.780;2022-12-07T05:14:45;14.95;;;6.90;;
75608;SDS011;64194;51.044;13.780;2022-12-07T05:18:47;14.48;;;6.35;;
75608;SDS011;64194;51.044;13.780;2022-12-07T05:22:48;13.60;;;6.57;;
75608;SDS011;64194;51.044;13.780;2022-12-07T05:26:50;15.00;;;6.85;;
75608;SDS011;64194;51.044;13.780;2022-12-07T05:30:52;16.25;;;7.15;;
75608;SDS011;64194;51.044;13.780;2022-12-07T05:35:00;13.70;;;6.13;;
75608;SDS011;64194;51.044;13.780;2022-12-07T05:39:02;17.83;;;6.20;;
75608;SDS011;64194;51.044;13.780;2022-12-07T05:43:04;14.95;;;6.72;;
75608;SDS011;64194;51.044;13.780;2022-12-07T05:47:26;13.85;;;5.80;;
75608;SDS011;64194;51.044;13.780;2022-12-07T05:51:28;11.35;;;5.70;;
75608;SDS011;64194;51.044;13.780;2022-12-07T05:55:30;13.10;;;6.15;;
75608;SDS011;64194;51.044;13.780;2022-12-07T05:59:32;12.90;;;5.90;;
75608;SDS011;64194;51.044;13.780;2022-12-07T06:03:34;12.93;;;5.75;;
75608;SDS011;64194;51.044;13.780;2022-12-07T06:07:36;12.32;;;5.72;;
75608;SDS011;64194;51.044;13.780;2022-12-07T06:11:38;11.00;;;5.07;;
75608;SDS011;64194;51.044;13.780;2022-12-07T06:15:59;10.00;;;4.35;;
75608;SDS011;64194;51.044;13.780;2022-12-07T06:20:01;9.65;;;4.10;;
75608;SDS011;64194;51.044;13.780;2022-12-07T06:24:04;10.65;;;4.10;;
75608;SDS011;64194;51.044;13.780;2022-12-07T06:28:07;8.23;;;4.10;;
75608;SDS011;64194;51.044;13.780;2022-12-07T06:32:08;8.55;;;3.40;;
75608;SDS011;64194;51.044;13.780;2022-12-07T06:36:11;8.82;;;4.13;;
75608;SDS011;64194;51.044;13.780;2022-12-07T06:40:13;7.20;;;3.65;;
75608;SDS011;64194;51.044;13.780;2022-12-07T06:44:15;7.30;;;3.28;;
75608;SDS011;64194;51.044;13.780;2022-12-07T06:48:19;8.25;;;3.35;;
75608;SDS011;64194;51.044;13.780;2022-12-07T06:52:24;9.52;;;4.30;;
75608;SDS011;64194;51.044;13.780;2022-12-07T06:56:25;8.20;;;3.22;;
75608;SDS011;64194;51.044;13.780;2022-12-07T07:00:27;8.30;;;3.90;;
75608;SDS011;64194;51.044;13.780;2022-12-07T07:04:29;7.85;;;3.38;;
75608;SDS011;64194;51.044;13.780;2022-12-07T07:08:31;7.68;;;3.30;;
75608;SDS011;64194;51.044;13.780;2022-12-07T07:12:32;8.32;;;3.30;;
75608;SDS011;64194;51.044;13.780;2022-12-07T07:16:34;7.82;;;3.42;;
75608;SDS011;64194;51.044;13.780;2022-12-07T07:20:37;8.52;;;3.95;;
75608;SDS011;64194;51.044;13.780;2022-12-07T07:24:39;8.75;;;4.13;;
75608;SDS011;64194;51.044;13.780;2022-12-07T07:28:41;8.63;;;4.50;;
75608;SDS011;64194;51.044;13.780;2022-12-07T07:32:58;8.35;;;3.67;;
75608;SDS011;64194;51.044;13.780;2022-12-07T07:37:01;7.80;;;3.80;;
75608;SDS011;64194;51.044;13.780;2022-12-07T07:41:02;9.10;;;4.30;;
75608;SDS011;64194;51.044;13.780;2022-12-07T07:45:05;8.70;;;3.80;;
75608;SDS011;64194;51.044;13.780;2022-12-07T07:49:07;8.52;;;4.45;;
75608;SDS011;64194;51.044;13.780;2022-12-07T07:58:51;7.63;;;3.58;;
75608;SDS011;64194;51.044;13.780;2022-12-07T08:02:53;7.97;;;3.80;;
75608;SDS011;64194;51.044;13.780;2022-12-07T08:06:56;10.05;;;4.45;;
75608;SDS011;64194;51.044;13.780;2022-12-07T08:16:55;10.60;;;5.20;;
75608;SDS011;64194;51.044;13.780;2022-12-07T08:21:00;9.52;;;4.53;;
75608;SDS011;64194;51.044;13.780;2022-12-07T08:25:02;8.63;;;4.78;;
75608;SDS011;64194;51.044;13.780;2022-12-07T08:29:04;9.98;;;5.15;;
75608;SDS011;64194;51.044;13.780;2022-12-07T08:38:17;10.40;;;5.38;;
75608;SDS011;64194;51.044;13.780;2022-12-07T08:42:20;9.65;;;5.82;;
75608;SDS011;64194;51.044;13.780;2022-12-07T08:46:25;10.35;;;5.57;;
75608;SDS011;64194;51.044;13.780;2022-12-07T08:50:34;10.88;;;5.70;;
75608;SDS011;64194;51.044;13.780;2022-12-07T08:54:38;9.52;;;5.20;;
75608;SDS011;64194;51.044;13.780;2022-12-07T08:58:44;10.85;;;5.07;;
75608;SDS011;64194;51.044;13.780;2022-12-07T09:02:51;8.98;;;4.50;;
75608;SDS011;64194;51.044;13.780;2022-12-07T09:06:54;9.68;;;5.35;;
75608;SDS011;64194;51.044;13.780;2022-12-07T09:10:57;11.20;;;5.45;;
75608;SDS011;64194;51.044;13.780;2022-12-07T09:14:59;10.88;;;5.05;;
75608;SDS011;64194;51.044;13.780;2022-12-07T09:19:02;9.02;;;4.82;;
75608;SDS011;64194;51.044;13.780;2022-12-07T09:23:07;10.95;;;5.47;;
75608;SDS011;64194;51.044;13.780;2022-12-07T09:27:09;8.68;;;4.80;;
75608;SDS011;64194;51.044;13.780;2022-12-07T09:31:10;10.63;;;5.05;;
75608;SDS011;64194;51.044;13.780;2022-12-07T09:35:25;9.70;;;4.80;;
75608;SDS011;64194;51.044;13.780;2022-12-07T09:39:27;10.18;;;4.70;;
75608;SDS011;64194;51.044;13.780;2022-12-07T09:43:29;9.63;;;4.43;;
75608;SDS011;64194;51.044;13.780;2022-12-07T09:47:30;7.93;;;3.80;;
75608;SDS011;64194;51.044;13.780;2022-12-07T09:56:11;7.07;;;3.70;;
75608;SDS011;64194;51.044;13.780;2022-12-07T10:00:16;7.53;;;3.78;;
75608;SDS011;64194;51.044;13.780;2022-12-07T10:04:30;7.07;;;3.30;;
75608;SDS011;64194;51.044;13.780;2022-12-07T10:08:36;8.43;;;3.90;;
75608;SDS011;64194;51.044;13.780;2022-12-07T10:30:52;7.97;;;3.45;;
75608;SDS011;64194;51.044;13.780;2022-12-07T10:35:23;7.63;;;2.90;;
75608;SDS011;64194;51.044;13.780;2022-12-07T10:39:27;8.35;;;3.45;;
75608;SDS011;64194;51.044;13.780;2022-12-07T10:43:29;8.88;;;3.53;;
75608;SDS011;64194;51.044;13.780;2022-12-07T10:47:33;9.10;;;4.75;;
75608;SDS011;64194;51.044;13.780;2022-12-07T10:52:34;8.82;;;3.80;;
75608;SDS011;64194;51.044;13.780;2022-12-07T11:00:24;9.30;;;4.10;;
75608;SDS011;64194;51.044;13.780;2022-12-07T11:14:34;10.18;;;4.30;;
75608;SDS011;64194;51.044;13.780;2022-12-07T11:18:43;9.77;;;4.10;;
75608;SDS011;64194;51.044;13.780;2022-12-07T11:22:57;9.13;;;3.95;;
75608;SDS011;64194;51.044;13.780;2022-12-07T11:32:14;9.82;;;3.85;;
75608;SDS011;64194;51.044;13.780;2022-12-07T11:35:54;9.65;;;3.97;;
75608;SDS011;64194;51.044;13.780;2022-12-07T11:49:45;14.50;;;4.75;;
75608;SDS011;64194;51.044;13.780;2022-12-07T11:53:56;9.77;;;3.83;;
75608;SDS011;64194;51.044;13.780;2022-12-07T12:02:59;11.23;;;5.07;;
75608;SDS011;64194;51.044;13.780;2022-12-07T12:17:55;8.85;;;4.50;;
75608;SDS011;64194;51.044;13.780;2022-12-07T12:21:47;7.63;;;4.13;;
75608;SDS011;64194;51.044;13.780;2022-12-07T12:35:20;9.02;;;4.53;;
75608;SDS011;64194;51.044;13.780;2022-12-07T12:39:35;9.65;;;4.60;;
75608;SDS011;64194;51.044;13.780;2022-12-07T12:43:43;9.07;;;4.20;;
75608;SDS011;64194;51.044;13.780;2022-12-07T13:05:37;4.20;;;1.60;;
75608;SDS011;64194;51.044;13.780;2022-12-07T13:10:21;4.50;;;1.63;;
75608;SDS011;64194;51.044;13.780;2022-12-07T13:14:54;4.65;;;1.50;;
75608;SDS011;64194;51.044;13.780;2022-12-07T13:19:00;4.93;;;1.30;;
75608;SDS011;64194;51.044;13.780;2022-12-07T13:23:03;5.18;;;1.55;;
75608;SDS011;64194;51.044;13.780;2022-12-07T13:27:10;4.00;;;1.52;;
75608;SDS011;64194;51.044;13.780;2022-12-07T13:39:34;4.10;;;1.85;;
75608;SDS011;64194;51.044;13.780;2022-12-07T13:43:45;6.38;;;2.35;;
75608;SDS011;64194;51.044;13.780;2022-12-07T13:48:34;5.93;;;2.65;;
75608;SDS011;64194;51.044;13.780;2022-12-07T13:52:59;6.60;;;3.25;;
75608;SDS011;64194;51.044;13.780;2022-12-07T13:57:01;8.35;;;3.13;;
75608;SDS011;64194;51.044;13.780;2022-12-07T14:01:03;6.10;;;2.95;;
75608;SDS011;64194;51.044;13.780;2022-12-07T14:05:25;9.43;;;3.60;;
75608;SDS011;64194;51.044;13.780;2022-12-07T14:09:29;6.93;;;3.35;;
75608;SDS011;64194;51.044;13.780;2022-12-07T14:14:01;7.57;;;3.28;;
75608;SDS011;64194;51.044;13.780;2022-12-07T14:18:47;9.38;;;4.40;;
75608;SDS011;64194;51.044;13.780;2022-12-07T14:23:32;6.07;;;3.58;;
75608;SDS011;64194;51.044;13.780;2022-12-07T14:27:34;7.60;;;3.97;;
75608;SDS011;64194;51.044;13.780;2022-12-07T14:31:39;7.90;;;3.60;;
75608;SDS011;64194;51.044;13.780;2022-12-07T14:35:41;8.60;;;3.90;;
75608;SDS011;64194;51.044;13.780;2022-12-07T14:39:45;9.05;;;3.97;;
75608;SDS011;64194;51.044;13.780;2022-12-07T14:43:47;9.07;;;3.35;;
75608;SDS011;64194;51.044;13.780;2022-12-07T14:48:13;6.82;;;3.72;;
75608;SDS011;64194;51.044;13.780;2022-12-07T14:52:54;8.77;;;3.65;;
75608;SDS011;64194;51.044;13.780;2022-12-07T14:57:31;9.70;;;4.03;;
75608;SDS011;64194;51.044;13.780;2022-12-07T15:01:35;8.93;;;3.72;;
75608;SDS011;64194;51.044;13.780;2022-12-07T15:05:37;8.40;;;3.75;;
75608;SDS011;64194;51.044;13.780;2022-12-07T15:09:38;10.55;;;3.90;;
75608;SDS011;64194;51.044;13.780;2022-12-07T15:14:23;6.05;;;2.67;;
75608;SDS011;64194;51.044;13.780;2022-12-07T15:18:25;7.30;;;3.17;;
75608;SDS011;64194;51.044;13.780;2022-12-07T15:22:26;7.93;;;2.80;;
75608;SDS011;64194;51.044;13.780;2022-12-07T15:26:28;6.93;;;2.60;;
75608;SDS011;64194;51.044;13.780;2022-12-07T15:30:30;6.15;;;2.30;;
75608;SDS011;64194;51.044;13.780;2022-12-07T15:34:52;5.45;;;1.90;;
75608;SDS011;64194;51.044;13.780;2022-12-07T15:38:57;6.43;;;2.50;;
75608;SDS011;64194;51.044;13.780;2022-12-07T15:43:21;7.75;;;2.33;;
75608;SDS011;64194;51.044;13.780;2022-12-07T15:47:42;6.53;;;2.10;;
75608;SDS011;64194;51.044;13.780;2022-12-07T15:52:07;5.63;;;2.25;;
75608;SDS011;64194;51.044;13.780;2022-12-07T15:56:09;5.07;;;1.85;;
75608;SDS011;64194;51.044;13.780;2022-12-07T16:00:12;6.32;;;2.03;;
75608;SDS011;64194;51.044;13.780;2022-12-07T16:04:18;7.45;;;2.42;;
75608;SDS011;64194;51.044;13.780;2022-12-07T16:08:20;7.75;;;3.33;;
75608;SDS011;64194;51.044;13.780;2022-12-07T16:12:49;7.93;;;3.10;;
75608;SDS011;64194;51.044;13.780;2022-12-07T16:16:51;7.28;;;2.67;;
75608;SDS011;64194;51.044;13.780;2022-12-07T16:20:53;7.28;;;2.53;;
75608;SDS011;64194;51.044;13.780;2022-12-07T16:24:55;7.97;;;2.40;;
75608;SDS011;64194;51.044;13.780;2022-12-07T16:28:58;7.18;;;2.50;;
75608;SDS011;64194;51.044;13.780;2022-12-07T16:33:00;8.60;;;2.80;;
75608;SDS011;64194;51.044;13.780;2022-12-07T16:37:03;7.78;;;2.90;;
75608;SDS011;64194;51.044;13.780;2022-12-07T16:41:25;7.80;;;2.45;;
75608;SDS011;64194;51.044;13.780;2022-12-07T16:45:27;6.43;;;2.55;;
75608;SDS011;64194;51.044;13.780;2022-12-07T16:49:28;6.47;;;3.10;;
75608;SDS011;64194;51.044;13.780;2022-12-07T16:53:31;8.82;;;3.03;;
75608;SDS011;64194;51.044;13.780;2022-12-07T16:57:33;6.40;;;3.08;;
75608;SDS011;64194;51.044;13.780;2022-12-07T17:01:35;6.95;;;2.75;;
75608;SDS011;64194;51.044;13.780;2022-12-07T17:05:37;5.00;;;1.92;;
75608;SDS011;64194;51.044;13.780;2022-12-07T17:09:59;5.78;;;2.15;;
75608;SDS011;64194;51.044;13.780;2022-12-07T17:14:01;6.10;;;2.10;;
75608;SDS011;64194;51.044;13.780;2022-12-07T17:18:21;4.97;;;2.00;;
75608;SDS011;64194;51.044;13.780;2022-12-07T17:22:43;7.75;;;2.38;;
75608;SDS011;64194;51.044;13.780;2022-12-07T17:27:08;5.38;;;1.80;;
75608;SDS011;64194;51.044;13.780;2022-12-07T17:31:14;6.78;;;2.08;;
75608;SDS011;64194;51.044;13.780;2022-12-07T17:35:56;5.15;;;2.22;;
75608;SDS011;64194;51.044;13.780;2022-12-07T17:40:01;5.57;;;1.92;;
75608;SDS011;64194;51.044;13.780;2022-12-07T17:44:03;6.15;;;2.40;;
75608;SDS011;64194;51.044;13.780;2022-12-07T17:48:25;4.75;;;2.08;;
75608;SDS011;64194;51.044;13.780;2022-12-07T17:52:47;4.85;;;2.05;;
75608;SDS011;64194;51.044;13.780;2022-12-07T17:57:07;5.05;;;1.98;;
75608;SDS011;64194;51.044;13.780;2022-12-07T18:01:29;5.55;;;2.10;;
75608;SDS011;64194;51.044;13.780;2022-12-07T18:05:41;5.78;;;2.67;;
75608;SDS011;64194;51.044;13.780;2022-12-07T18:10:20;8.25;;;2.63;;
75608;SDS011;64194;51.044;13.780;2022-12-07T18:14:22;6.63;;;3.10;;
75608;SDS011;64194;51.044;13.780;2022-12-07T18:18:24;7.55;;;3.03;;
75608;SDS011;64194;51.044;13.780;2022-12-07T18:22:25;6.47;;;2.33;;
75608;SDS011;64194;51.044;13.780;2022-12-07T18:26:35;4.90;;;2.05;;
75608;SDS011;64194;51.044;13.780;2022-12-07T18:30:39;4.95;;;2.20;;
75608;SDS011;64194;51.044;13.780;2022-12-07T18:35:24;5.88;;;2.15;;
75608;SDS011;64194;51.044;13.780;2022-12-07T18:39:26;5.25;;;2.25;;
75608;SDS011;64194;51.044;13.780;2022-12-07T18:43:34;7.10;;;2.10;;
75608;SDS011;64194;51.044;13.780;2022-12-07T18:47:39;4.13;;;1.77;;
75608;SDS011;64194;51.044;13.780;2022-12-07T18:51:44;5.28;;;1.70;;
75608;SDS011;64194;51.044;13.780;2022-12-07T18:55:45;5.20;;;1.60;;
75608;SDS011;64194;51.044;13.780;2022-12-07T18:59:47;5.40;;;1.38;;
75608;SDS011;64194;51.044;13.780;2022-12-07T19:03:50;5.18;;;1.85;;
75608;SDS011;64194;51.044;13.780;2022-12-07T19:07:52;6.55;;;1.58;;
75608;SDS011;64194;51.044;13.780;2022-12-07T19:12:14;4.30;;;1.60;;
75608;SDS011;64194;51.044;13.780;2022-12-07T19:16:40;4.18;;;1.27;;
75608;SDS011;64194;51.044;13.780;2022-12-07T19:21:17;5.45;;;1.63;;
75608;SDS011;64194;51.044;13.780;2022-12-07T19:25:40;4.05;;;1.67;;
75608;SDS011;64194;51.044;13.780;2022-12-07T19:29:45;5.10;;;1.98;;
75608;SDS011;64194;51.044;13.780;2022-12-07T19:34:10;6.38;;;2.42;;
75608;SDS011;64194;51.044;13.780;2022-12-07T19:38:19;6.40;;;2.50;;
75608;SDS011;64194;51.044;13.780;2022-12-07T19:42:21;5.63;;;2.70;;
75608;SDS011;64194;51.044;13.780;2022-12-07T19:46:23;6.85;;;2.80;;
75608;SDS011;64194;51.044;13.780;2022-12-07T19:50:25;8.63;;;3.33;;
75608;SDS011;64194;51.044;13.780;2022-12-07T19:54:28;8.10;;;3.65;;
75608;SDS011;64194;51.044;13.780;2022-12-07T19:58:30;6.50;;;2.58;;
75608;SDS011;64194;51.044;13.780;2022-12-07T20:02:35;8.15;;;4.22;;
75608;SDS011;64194;51.044;13.780;2022-12-07T20:06:58;9.80;;;3.05;;
75608;SDS011;64194;51.044;13.780;2022-12-07T20:15:25;9.95;;;3.85;;
75608;SDS011;64194;51.044;13.780;2022-12-07T20:19:27;5.97;;;3.05;;
75608;SDS011;64194;51.044;13.780;2022-12-07T20:23:28;6.25;;;2.60;;
75608;SDS011;64194;51.044;13.780;2022-12-07T20:27:30;6.32;;;3.05;;
75608;SDS011;64194;51.044;13.780;2022-12-07T20:31:35;9.95;;;3.60;;
75608;SDS011;64194;51.044;13.780;2022-12-07T20:35:57;9.13;;;3.22;;
75608;SDS011;64194;51.044;13.780;2022-12-07T20:40:22;7.85;;;2.67;;
75608;SDS011;64194;51.044;13.780;2022-12-07T20:44:25;7.63;;;2.50;;
75608;SDS011;64194;51.044;13.780;2022-12-07T20:48:27;7.82;;;2.80;;
75608;SDS011;64194;51.044;13.780;2022-12-07T20:52:29;7.72;;;2.92;;
75608;SDS011;64194;51.044;13.780;2022-12-07T20:56:31;6.22;;;2.80;;
75608;SDS011;64194;51.044;13.780;2022-12-07T21:00:58;7.75;;;2.50;;
75608;SDS011;64194;51.044;13.780;2022-12-07T21:05:17;9.20;;;3.15;;
75608;SDS011;64194;51.044;13.780;2022-12-07T21:09:19;8.48;;;3.20;;
75608;SDS011;64194;51.044;13.780;2022-12-07T21:13:42;10.20;;;2.75;;
75608;SDS011;64194;51.044;13.780;2022-12-07T21:17:44;10.20;;;3.45;;
75608;SDS011;64194;51.044;13.780;2022-12-07T21:21:46;8.68;;;3.10;;
75608;SDS011;64194;51.044;13.780;2022-12-07T21:25:50;7.93;;;2.60;;
75608;SDS011;64194;51.044;13.780;2022-12-07T21:29:52;8.93;;;2.72;;
75608;SDS011;64194;51.044;13.780;2022-12-07T21:33:54;7.30;;;3.00;;
75608;SDS011;64194;51.044;13.780;2022-12-07T21:37:58;9.45;;;3.63;;
75608;SDS011;64194;51.044;13.780;2022-12-07T21:42:00;7.78;;;2.97;;
75608;SDS011;64194;51.044;13.780;2022-12-07T21:46:22;7.25;;;3.30;;
75608;SDS011;64194;51.044;13.780;2022-12-07T21:56:15;8.57;;;3.13;;
75608;SDS011;64194;51.044;13.780;2022-12-07T22:00:18;8.85;;;3.40;;
75608;SDS011;64194;51.044;13.780;2022-12-07T22:04:23;6.53;;;2.80;;
75608;SDS011;64194;51.044;13.780;2022-12-07T22:08:26;6.97;;;3.08;;
75608;SDS011;64194;51.044;13.780;2022-12-07T22:12:28;7.63;;;3.00;;
75608;SDS011;64194;51.044;13.780;2022-12-07T22:16:31;8.15;;;2.83;;
75608;SDS011;64194;51.044;13.780;2022-12-07T22:30:24;8.85;;;2.70;;
75608;SDS011;64194;51.044;13.780;2022-12-07T22:34:27;8.55;;;2.83;;
75608;SDS011;64194;51.044;13.780;2022-12-07T22:48:13;7.75;;;2.72;;
75608;SDS011;64194;51.044;13.780;2022-12-07T22:52:15;7.88;;;2.85;;
75608;SDS011;64194;51.044;13.780;2022-12-07T22:56:18;7.78;;;2.60;;
75608;SDS011;64194;51.044;13.780;2022-12-07T23:00:20;6.90;;;2.90;;
75608;SDS011;64194;51.044;13.780;2022-12-07T23:04:22;7.95;;;2.90;;
75608;SDS011;64194;51.044;13.780;2022-12-07T23:08:23;6.28;;;3.10;;
75608;SDS011;64194;51.044;13.780;2022-12-07T23:12:25;6.45;;;2.80;;
75608;SDS011;64194;51.044;13.780;2022-12-07T23:17:01;9.35;;;2.30;;
75608;SDS011;64194;51.044;13.780;2022-12-07T23:26:00;6.43;;;2.72;;
75608;SDS011;64194;51.044;13.780;2022-12-07T23:30:07;6.47;;;2.63;;
75608;SDS011;64194;51.044;13.780;2022-12-07T23:48:51;7.47;;;2.53;;
75608;SDS011;64194;51.044;13.780;2022-12-07T23:52:55;8.00;;;3.35;;
75608;SDS011;64194;51.044;13.780;2022-12-07T23:56:57;6.80;;;2.85;;
